createdAt,value
2022-08-22T00:02:06.418Z,0.60
2022-08-22T00:02:43.109Z,0.77
2022-08-22T00:02:43.366Z,0.75
2022-08-22T00:02:46.449Z,0.63
2022-08-22T00:02:49.418Z,0.57
2022-08-22T00:02:49.790Z,0.60
2022-08-22T00:02:56.462Z,0.68
2022-08-22T00:03:01.119Z,0.57
2022-08-22T00:03:07.174Z,0.70
2022-08-22T00:04:36.553Z,0.43
2022-08-22T00:07:26.148Z,0.47
2022-08-22T00:09:58.747Z,0.70
2022-08-22T00:12:32.277Z,0.60
2022-08-22T00:15:07.975Z,0.63
2022-08-22T00:17:52.415Z,0.60
2022-08-22T00:20:33.166Z,0.50
2022-08-22T00:23:17.316Z,0.73
2022-08-22T00:25:46.601Z,0.43
2022-08-22T00:28:22.451Z,0.60
2022-08-22T00:30:56.325Z,0.57
2022-08-22T00:33:51.729Z,0.70
2022-08-22T00:36:38.238Z,0.60
2022-08-22T00:39:32.608Z,0.80
2022-08-22T00:42:02.111Z,0.60
2022-08-22T00:45:15.147Z,0.68
2022-08-22T00:47:41.746Z,0.68
2022-08-22T00:50:46.113Z,0.60
2022-08-22T00:53:40.519Z,0.90
2022-08-22T00:56:28.017Z,0.80
2022-08-22T00:59:22.723Z,0.80
2022-08-22T01:02:05.916Z,0.45
2022-08-22T01:04:41.598Z,0.68
2022-08-22T01:07:37.871Z,0.50
2022-08-22T01:10:23.008Z,0.73
2022-08-22T01:13:11.087Z,0.60
2022-08-22T01:15:40.245Z,0.70
2022-08-22T01:18:12.826Z,0.50
2022-08-22T01:21:04.279Z,0.60
2022-08-22T01:23:42.940Z,0.52
2022-08-22T01:26:25.073Z,0.40
2022-08-22T01:29:31.248Z,0.70
2022-08-22T01:32:01.097Z,0.60
2022-08-22T01:34:54.053Z,0.73
2022-08-22T01:37:43.683Z,0.73
2022-08-22T01:40:37.879Z,0.80
2022-08-22T01:43:59.273Z,0.68
2022-08-22T01:46:51.583Z,0.88
2022-08-22T01:50:29.566Z,0.60
2022-08-22T01:53:57.706Z,0.50
2022-08-22T01:57:24.944Z,1.08
2022-08-22T02:01:04.678Z,0.63
2022-08-22T02:04:32.119Z,0.98
2022-08-22T02:08:03.222Z,0.60
2022-08-22T02:12:21.973Z,0.43
2022-08-22T02:16:02.546Z,0.65
2022-08-22T02:19:46.701Z,0.50
2022-08-22T02:23:29.536Z,0.70
2022-08-22T02:27:18.816Z,0.57
2022-08-22T02:30:49.028Z,0.80
2022-08-22T02:34:21.414Z,0.60
2022-08-22T02:36:58.176Z,0.63
2022-08-22T02:39:37.555Z,0.60
2022-08-22T02:42:22.695Z,0.90
2022-08-22T02:44:57.175Z,0.70
2022-08-22T02:47:32.698Z,0.60
2022-08-22T02:50:05.857Z,0.80
2022-08-22T02:52:39.255Z,0.70
2022-08-22T02:55:16.382Z,0.70
2022-08-22T02:58:10.047Z,0.40
2022-08-22T03:00:46.093Z,0.50
2022-08-22T03:03:24.029Z,0.60
2022-08-22T03:06:22.250Z,0.90
2022-08-22T03:09:08.904Z,0.70
2022-08-22T03:11:43.011Z,0.60
2022-08-22T03:16:54.265Z,0.68
2022-08-22T03:19:20.802Z,0.60
2022-08-22T03:22:10.685Z,0.50
2022-08-22T03:25:07.435Z,0.63
2022-08-22T03:27:54.417Z,0.60
2022-08-22T03:30:29.605Z,1.02
2022-08-22T03:33:32.092Z,0.80
2022-08-22T03:36:25.910Z,0.70
2022-08-22T03:39:16.652Z,1.00
2022-08-22T03:42:31.916Z,0.57
2022-08-22T03:45:19.961Z,0.70
2022-08-22T03:48:12.064Z,0.73
2022-08-22T03:50:54.612Z,0.60
2022-08-22T03:54:03.946Z,0.82
2022-08-22T03:57:08.726Z,0.65
2022-08-22T03:59:42.515Z,0.70
2022-08-22T04:05:45.409Z,0.95
2022-08-22T04:08:36.333Z,0.77
2022-08-22T04:11:31.393Z,0.73
2022-08-22T04:14:06.880Z,0.75
2022-08-22T04:16:52.794Z,0.80
2022-08-22T04:19:46.956Z,0.90
2022-08-22T04:22:33.507Z,0.80
2022-08-22T04:25:26.714Z,0.80
2022-08-22T04:28:22.801Z,0.90
2022-08-22T04:31:10.537Z,0.80
2022-08-22T04:33:51.018Z,0.95
2022-08-22T04:36:31.135Z,1.33
2022-08-22T04:39:05.142Z,0.90
2022-08-22T04:41:52.952Z,0.82
2022-08-22T04:44:26.058Z,0.80
2022-08-22T04:47:05.162Z,0.80
2022-08-22T04:49:51.864Z,0.82
2022-08-22T04:52:37.116Z,1.23
2022-08-22T04:55:17.697Z,0.90
2022-08-22T04:57:47.286Z,1.00
2022-08-22T05:00:15.971Z,0.88
2022-08-22T05:02:49.260Z,1.27
2022-08-22T05:05:32.562Z,1.05
2022-08-22T05:08:02.920Z,1.00
2022-08-22T05:10:35.576Z,0.98
2022-08-22T05:13:33.551Z,1.00
2022-08-22T05:16:06.255Z,1.27
2022-08-22T05:18:38.986Z,1.70
2022-08-22T05:21:09.330Z,2.00
2022-08-22T05:23:43.378Z,1.85
2022-08-22T05:26:13.810Z,2.15
2022-08-22T05:28:50.174Z,1.95
2022-08-22T05:31:26.334Z,2.25
2022-08-22T05:34:03.764Z,1.83
2022-08-22T05:36:41.218Z,2.00
2022-08-22T05:39:16.140Z,2.22
2022-08-22T05:41:44.840Z,2.28
2022-08-22T05:44:27.032Z,2.30
2022-08-22T05:47:14.990Z,2.10
2022-08-22T05:50:01.859Z,1.90
2022-08-22T05:52:52.107Z,2.00
2022-08-22T05:55:30.550Z,1.77
2022-08-22T05:58:24.975Z,2.10
2022-08-22T06:01:06.774Z,2.20
2022-08-22T06:03:43.982Z,1.90
2022-08-22T06:06:17.679Z,1.67
2022-08-22T06:08:58.543Z,1.65
2022-08-22T06:11:44.850Z,1.75
2022-08-22T06:14:30.866Z,1.60
2022-08-22T06:17:10.203Z,2.28
2022-08-22T06:19:42.098Z,2.45
2022-08-22T06:22:09.980Z,1.23
2022-08-22T06:24:41.075Z,1.73
2022-08-22T06:27:12.841Z,1.50
2022-08-22T06:29:48.942Z,1.58
2022-08-22T06:32:52.896Z,1.70
2022-08-22T06:35:20.515Z,2.13
2022-08-22T06:37:49.738Z,1.70
2022-08-22T06:40:18.069Z,1.52
2022-08-22T06:42:50.139Z,1.48
2022-08-22T06:45:27.795Z,1.50
2022-08-22T06:48:06.847Z,1.63
2022-08-22T06:50:36.751Z,1.83
2022-08-22T06:53:08.963Z,1.63
2022-08-22T06:55:39.085Z,1.38
2022-08-22T06:58:12.889Z,1.38
2022-08-22T07:00:42.553Z,1.55
2022-08-22T07:03:21.146Z,1.35
2022-08-22T07:05:48.078Z,1.02
2022-08-22T07:08:19.326Z,1.48
2022-08-22T07:10:58.083Z,0.98
2022-08-22T07:13:28.229Z,0.90
2022-08-22T07:16:00.010Z,1.17
2022-08-22T07:18:29.822Z,1.05
2022-08-22T07:21:00.166Z,1.05
2022-08-22T07:23:48.111Z,0.90
2022-08-22T07:26:58.912Z,0.95
2022-08-22T07:30:10.067Z,1.70
2022-08-22T07:32:55.641Z,1.27
2022-08-22T07:35:41.992Z,1.13
2022-08-22T07:38:43.930Z,1.20
2022-08-22T07:41:32.081Z,1.98
2022-08-22T07:44:21.510Z,1.30
2022-08-22T07:47:07.134Z,2.10
2022-08-22T07:49:49.728Z,2.05
2022-08-22T07:52:17.971Z,1.77
2022-08-22T07:55:09.008Z,1.85
2022-08-22T07:57:41.208Z,1.50
2022-08-22T08:00:15.952Z,1.33
2022-08-22T08:03:07.189Z,1.52
2022-08-22T08:05:37.204Z,1.35
2022-08-22T08:08:15.498Z,1.17
2022-08-22T08:10:42.772Z,1.63
2022-08-22T08:13:17.075Z,1.05
2022-08-22T08:15:45.877Z,1.27
2022-08-22T08:18:21.952Z,1.40
2022-08-22T08:20:59.763Z,1.30
2022-08-22T08:23:32.095Z,1.65
2022-08-22T08:26:08.531Z,1.40
2022-08-22T08:28:57.109Z,1.27
2022-08-22T08:31:35.600Z,1.00
2022-08-22T08:34:12.150Z,1.30
2022-08-22T08:37:01.362Z,1.25
2022-08-22T08:39:39.483Z,1.27
2022-08-22T08:42:06.047Z,1.67
2022-08-22T08:44:47.844Z,1.98
2022-08-22T08:47:33.440Z,1.30
2022-08-22T08:50:10.606Z,1.27
2022-08-22T08:52:58.845Z,1.58
2022-08-22T08:55:54.351Z,1.38
2022-08-22T08:58:24.168Z,1.40
2022-08-22T09:00:59.311Z,1.27
2022-08-22T09:03:40.674Z,1.50
2022-08-22T09:06:09.987Z,1.50
2022-08-22T09:08:55.930Z,1.58
2022-08-22T09:11:31.348Z,1.40
2022-08-22T09:14:28.490Z,1.30
2022-08-22T09:17:13.963Z,1.27
2022-08-22T09:19:59.784Z,1.20
2022-08-22T09:23:05.283Z,1.67
2022-08-22T09:26:02.669Z,1.10
2022-08-22T09:28:44.608Z,1.40
2022-08-22T09:31:47.640Z,1.27
2022-08-22T09:34:28.882Z,0.90
2022-08-22T09:37:04.564Z,1.10
2022-08-22T09:40:08.197Z,1.00
2022-08-22T09:42:46.450Z,1.10
2022-08-22T09:45:28.509Z,1.20
2022-08-22T09:48:26.636Z,1.13
2022-08-22T09:51:33.167Z,1.13
2022-08-22T09:54:13.303Z,1.10
2022-08-22T09:57:00.989Z,0.65
2022-08-22T09:59:52.432Z,1.50
2022-08-22T10:02:34.462Z,1.58
2022-08-22T10:05:35.198Z,1.48
2022-08-22T10:08:30.318Z,1.42
2022-08-22T10:11:21.433Z,0.95
2022-08-22T10:14:09.693Z,1.20
2022-08-22T10:16:51.984Z,1.50
2022-08-22T10:19:38.938Z,0.90
2022-08-22T10:22:41.484Z,0.90
2022-08-22T10:25:29.260Z,1.20
2022-08-22T10:28:15.044Z,1.30
2022-08-22T10:31:00.856Z,1.17
2022-08-22T10:33:36.766Z,1.38
2022-08-22T10:36:28.306Z,0.90
2022-08-22T10:38:56.087Z,0.75
2022-08-22T10:42:05.842Z,0.95
2022-08-22T10:45:02.078Z,0.70
2022-08-22T10:47:45.606Z,0.50
2022-08-22T10:50:20.166Z,0.90
2022-08-22T10:55:26.920Z,0.60
2022-08-22T10:57:53.524Z,0.70
2022-08-22T11:00:49.699Z,0.52
2022-08-22T11:03:35.207Z,0.63
2022-08-22T11:06:10.424Z,0.60
2022-08-22T11:08:53.999Z,0.68
2022-08-22T11:11:32.675Z,0.65
2022-08-22T11:14:44.911Z,0.50
2022-08-22T11:17:54.082Z,0.70
2022-08-22T11:20:35.919Z,0.63
2022-08-22T11:23:41.451Z,0.50
2022-08-22T11:26:47.800Z,0.38
2022-08-22T11:29:23.922Z,0.30
2022-08-22T11:32:07.764Z,0.45
2022-08-22T11:37:43.302Z,0.50
2022-08-22T11:40:35.982Z,0.80
2022-08-22T11:43:05.921Z,0.60
2022-08-22T11:45:51.540Z,0.80
2022-08-22T11:48:33.145Z,0.50
2022-08-22T11:51:28.974Z,0.50
2022-08-22T11:54:15.138Z,0.60
2022-08-22T11:56:49.003Z,0.70
2022-08-22T11:59:33.111Z,0.70
2022-08-22T12:02:19.499Z,0.65
2022-08-22T12:04:55.583Z,0.55
2022-08-22T12:07:36.991Z,0.60
2022-08-22T12:10:13.858Z,0.60
2022-08-22T12:12:57.007Z,0.60
2022-08-22T12:15:57.883Z,0.50
2022-08-22T12:18:33.327Z,0.60
2022-08-22T12:21:09.189Z,0.60
2022-08-22T12:24:23.157Z,0.70
2022-08-22T12:27:35.218Z,0.60
2022-08-22T12:30:13.763Z,0.40
2022-08-22T12:33:01.897Z,0.45
2022-08-22T12:35:43.780Z,0.45
2022-08-22T12:38:47.717Z,0.77
2022-08-22T12:41:51.798Z,0.60
2022-08-22T12:44:55.404Z,0.57
2022-08-22T12:47:34.854Z,0.70
2022-08-22T12:50:23.183Z,0.80
2022-08-22T12:53:11.139Z,0.38
2022-08-22T12:56:10.178Z,0.40
2022-08-22T12:58:58.793Z,0.50
2022-08-22T13:01:34.300Z,0.30
2022-08-22T13:04:08.813Z,0.40
2022-08-22T13:06:35.594Z,0.20
2022-08-22T13:09:12.110Z,0.60
2022-08-22T13:11:41.469Z,0.20
2022-08-22T13:14:15.609Z,0.20
2022-08-22T13:16:52.014Z,0.10
2022-08-22T13:19:32.165Z,0.10
2022-08-22T13:22:16.930Z,0.10
2022-08-22T13:24:56.707Z,0.10
2022-08-22T13:27:24.591Z,0.38
2022-08-22T13:29:57.880Z,0.10
2022-08-22T13:32:48.662Z,0.20
2022-08-22T13:35:39.884Z,0.20
2022-08-22T13:38:25.512Z,0.50
2022-08-22T13:40:56.158Z,0.15
2022-08-22T13:43:30.113Z,0.50
2022-08-22T13:46:03.586Z,0.30
2022-08-22T13:49:00.724Z,0.20
2022-08-22T13:51:40.202Z,0.30
2022-08-22T13:54:10.818Z,0.10
2022-08-22T13:57:04.505Z,0.10
2022-08-22T13:59:52.065Z,0.10
2022-08-22T14:02:34.216Z,0.10
2022-08-22T14:05:06.793Z,0.10
2022-08-22T14:07:38.770Z,0.10
2022-08-22T14:10:19.038Z,0.20
2022-08-22T14:12:50.500Z,0.32
2022-08-22T14:15:40.532Z,0.40
2022-08-22T14:18:15.750Z,0.20
2022-08-22T14:20:46.631Z,0.40
2022-08-22T14:23:24.235Z,0.10
2022-08-22T14:25:54.627Z,0.32
2022-08-22T14:28:30.204Z,0.10
2022-08-22T14:31:04.942Z,0.20
2022-08-22T14:33:37.051Z,0.50
2022-08-22T14:36:22.573Z,0.30
2022-08-22T14:39:07.804Z,0.20
2022-08-22T14:41:55.729Z,0.73
2022-08-22T14:44:36.766Z,0.30
2022-08-22T14:47:54.686Z,0.40
2022-08-22T14:50:00.870Z,0.20
2022-08-22T14:52:38.020Z,0.28
2022-08-22T14:55:27.003Z,0.35
2022-08-22T14:58:03.536Z,0.50
2022-08-22T15:00:44.884Z,0.40
2022-08-22T15:03:20.585Z,0.28
2022-08-22T15:06:03.277Z,0.43
2022-08-22T15:08:32.896Z,0.20
2022-08-22T15:11:14.794Z,0.30
2022-08-22T15:13:51.124Z,0.10
2022-08-22T15:16:32.516Z,0.10
2022-08-22T15:19:00.297Z,0.30
2022-08-22T15:21:33.217Z,0.30
2022-08-22T15:24:12.367Z,0.20
2022-08-22T15:26:50.073Z,0.20
2022-08-22T15:29:27.882Z,0.38
2022-08-22T15:32:00.848Z,0.30
2022-08-22T15:34:41.855Z,0.30
2022-08-22T15:37:17.533Z,0.20
2022-08-22T15:40:10.379Z,0.20
2022-08-22T15:42:47.535Z,0.20
2022-08-22T15:45:19.869Z,0.20
2022-08-22T15:47:53.190Z,0.32
2022-08-22T15:51:00.256Z,0.30
2022-08-22T15:53:33.627Z,0.28
2022-08-22T15:58:37.290Z,0.30
2022-08-22T16:01:18.887Z,0.30
2022-08-22T16:04:00.580Z,0.28
2022-08-22T16:06:45.359Z,0.15
2022-08-22T16:09:32.025Z,0.20
2022-08-22T16:12:02.975Z,0.20
2022-08-22T16:14:35.649Z,0.28
2022-08-22T16:17:07.019Z,0.20
2022-08-22T16:19:35.212Z,0.10
2022-08-22T16:22:05.277Z,0.20
2022-08-22T16:24:34.003Z,0.20
2022-08-22T16:27:24.849Z,0.20
2022-08-22T16:30:02.844Z,0.30
2022-08-22T16:32:30.034Z,0.30
2022-08-22T16:34:56.619Z,0.30
2022-08-22T16:37:46.606Z,0.10
2022-08-22T16:40:20.063Z,0.10
2022-08-22T16:42:53.149Z,0.20
2022-08-22T16:45:45.334Z,0.22
2022-08-22T16:48:34.055Z,0.20
2022-08-22T16:51:15.513Z,0.20
2022-08-22T16:54:03.811Z,0.20
2022-08-22T16:56:40.366Z,0.30
2022-08-22T16:59:39.394Z,0.30
2022-08-22T17:02:33.560Z,0.20
2022-08-22T17:05:16.351Z,0.30
2022-08-22T17:08:08.399Z,0.13
2022-08-22T17:10:49.212Z,0.20
2022-08-22T17:13:45.712Z,0.20
2022-08-22T17:16:27.289Z,0.28
2022-08-22T17:19:15.830Z,0.30
2022-08-22T17:21:53.577Z,0.30
2022-08-22T17:24:45.462Z,0.20
2022-08-22T17:27:31.434Z,0.15
2022-08-22T17:30:09.405Z,0.30
2022-08-22T17:32:59.022Z,0.57
2022-08-22T17:35:57.135Z,0.10
2022-08-22T17:38:33.182Z,0.20
2022-08-22T17:41:10.328Z,0.20
2022-08-22T17:43:59.449Z,0.20
2022-08-22T17:46:54.340Z,0.17
2022-08-22T17:49:42.175Z,0.20
2022-08-22T17:52:21.797Z,0.20
2022-08-22T17:55:10.937Z,0.20
2022-08-22T17:57:47.091Z,0.20
2022-08-22T18:00:34.985Z,0.22
2022-08-22T18:03:09.196Z,0.30
2022-08-22T18:05:51.039Z,0.30
2022-08-22T18:11:55.953Z,0.30
2022-08-22T18:14:31.340Z,0.77
2022-08-22T18:17:00.881Z,0.40
2022-08-22T18:19:57.805Z,0.30
2022-08-22T18:22:27.439Z,0.30
2022-08-22T18:25:04.551Z,0.30
2022-08-22T18:27:47.746Z,0.30
2022-08-22T18:30:22.450Z,0.20
2022-08-22T18:33:08.649Z,0.20
2022-08-22T18:35:53.782Z,0.30
2022-08-22T18:38:29.071Z,0.40
2022-08-22T18:41:05.250Z,0.40
2022-08-22T18:43:35.354Z,0.30
2022-08-22T18:46:05.523Z,0.35
2022-08-22T18:48:59.490Z,0.35
2022-08-22T18:51:31.918Z,0.20
2022-08-22T18:54:04.023Z,0.40
2022-08-22T18:56:58.103Z,0.30
2022-08-22T18:59:57.372Z,0.40
2022-08-22T19:02:33.547Z,0.22
2022-08-22T19:05:09.071Z,0.40
2022-08-22T19:08:07.286Z,0.50
2022-08-22T19:11:15.194Z,0.50
2022-08-22T19:13:57.078Z,0.50
2022-08-22T19:16:56.041Z,0.50
2022-08-22T19:20:02.380Z,0.50
2022-08-22T19:22:33.958Z,0.80
2022-08-22T19:25:25.731Z,0.30
2022-08-22T19:28:10.348Z,0.63
2022-08-22T19:30:45.203Z,0.50
2022-08-22T19:33:19.614Z,0.50
2022-08-22T19:35:54.244Z,0.30
2022-08-22T19:38:57.378Z,0.77
2022-08-22T19:41:59.619Z,0.30
2022-08-22T19:44:55.642Z,0.50
2022-08-22T19:47:23.996Z,0.32
2022-08-22T19:49:50.508Z,0.50
2022-08-22T19:52:23.392Z,0.70
2022-08-22T19:55:26.061Z,0.50
2022-08-22T19:57:52.610Z,1.10
2022-08-22T20:00:24.197Z,0.40
2022-08-22T20:02:50.716Z,0.40
2022-08-22T20:05:36.563Z,0.70
2022-08-22T20:08:09.896Z,0.35
2022-08-22T20:10:40.024Z,0.60
2022-08-22T20:13:18.040Z,0.30
2022-08-22T20:16:40.386Z,0.50
2022-08-22T20:19:10.791Z,0.60
2022-08-22T20:21:49.324Z,0.50
2022-08-22T20:24:29.565Z,0.50
2022-08-22T20:27:13.412Z,0.38
2022-08-22T20:29:50.224Z,0.40
2022-08-22T20:32:19.752Z,0.50
2022-08-22T20:34:51.034Z,0.43
2022-08-22T20:37:56.226Z,0.45
2022-08-22T20:40:54.550Z,0.60
2022-08-22T20:43:22.920Z,0.40
2022-08-22T20:46:24.246Z,0.40
2022-08-22T20:48:54.531Z,0.70
2022-08-22T20:51:25.494Z,0.68
2022-08-22T20:54:15.794Z,0.50
2022-08-22T20:56:55.466Z,0.50
2022-08-22T20:59:28.014Z,0.55
2022-08-22T21:02:08.264Z,0.70
2022-08-22T21:05:03.662Z,0.60
2022-08-22T21:07:34.375Z,0.40
2022-08-22T21:10:22.983Z,0.40
2022-08-22T21:13:23.725Z,0.70
2022-08-22T21:16:11.341Z,0.35
2022-08-22T21:18:42.286Z,0.63
2022-08-22T21:21:24.704Z,0.60
2022-08-22T21:23:54.668Z,0.47
2022-08-22T21:26:23.402Z,0.80
2022-08-22T21:28:50.166Z,0.55
2022-08-22T21:31:23.882Z,0.90
2022-08-22T21:33:54.135Z,0.70
2022-08-22T21:36:24.027Z,0.70
2022-08-22T21:39:05.680Z,0.60
2022-08-22T21:41:53.176Z,0.60
2022-08-22T21:44:32.553Z,0.90
2022-08-22T21:47:34.683Z,0.60
2022-08-22T21:50:13.377Z,0.82
2022-08-22T21:52:47.085Z,0.70
2022-08-22T21:55:26.539Z,0.68
2022-08-22T21:58:01.869Z,0.70
2022-08-22T22:00:49.411Z,0.60
2022-08-22T22:03:19.463Z,0.85
2022-08-22T22:05:47.582Z,0.75
2022-08-22T22:08:14.347Z,0.70
2022-08-22T22:10:42.962Z,0.70
2022-08-22T22:13:10.324Z,0.75
2022-08-22T22:15:44.178Z,0.93
2022-08-22T22:18:13.824Z,1.02
2022-08-22T22:20:41.862Z,1.05
2022-08-22T22:23:08.902Z,0.80
2022-08-22T22:25:40.155Z,0.65
2022-08-22T22:28:22.512Z,0.60
2022-08-22T22:30:51.448Z,0.73
2022-08-22T22:33:22.211Z,0.75
2022-08-22T22:35:50.803Z,0.57
2022-08-22T22:38:23.294Z,0.75
2022-08-22T22:40:50.803Z,0.50
2022-08-22T22:43:17.598Z,0.60
2022-08-22T22:45:45.098Z,0.60
2022-08-22T22:48:11.922Z,0.60
2022-08-22T22:50:45.466Z,0.57
2022-08-22T22:53:12.564Z,0.98
2022-08-22T22:56:00.442Z,0.68
2022-08-22T22:58:28.573Z,0.60
2022-08-22T23:00:56.611Z,0.70
2022-08-22T23:03:23.271Z,0.80
2022-08-22T23:05:50.663Z,0.55
2022-08-22T23:08:18.103Z,1.13
2022-08-22T23:10:45.225Z,0.65
2022-08-22T23:13:11.799Z,0.88
2022-08-22T23:15:38.397Z,0.88
2022-08-22T23:18:04.933Z,0.70
2022-08-22T23:20:31.519Z,0.80
2022-08-22T23:22:59.542Z,0.90
2022-08-22T23:25:26.624Z,0.80
2022-08-22T23:27:53.373Z,1.10
2022-08-22T23:30:21.676Z,0.98
2022-08-22T23:32:48.295Z,0.80
2022-08-22T23:35:15.088Z,1.00
2022-08-22T23:37:41.621Z,1.00
2022-08-22T23:40:09.603Z,0.90
2022-08-22T23:42:36.484Z,0.73
2022-08-22T23:45:03.810Z,0.75
2022-08-22T23:47:30.365Z,0.90
2022-08-22T23:49:56.937Z,0.90
2022-08-22T23:52:23.535Z,1.15
2022-08-22T23:54:54.349Z,1.00
2022-08-22T23:57:27.338Z,1.02
2022-08-22T23:59:57.286Z,0.90
